createdAt,value
2023-02-24T00:01:29.490Z,33.75
2023-02-24T00:04:00.498Z,34.05
2023-02-24T00:06:36.393Z,30.15
2023-02-24T00:09:06.479Z,40.63
2023-02-24T00:11:35.499Z,33.42
2023-02-24T00:14:06.006Z,33.40
2023-02-24T00:16:32.879Z,36.38
2023-02-24T00:18:59.828Z,34.67
2023-02-24T00:21:28.518Z,35.25
2023-02-24T00:23:54.957Z,36.25
2023-02-24T00:26:21.352Z,38.80
2023-02-24T00:28:47.717Z,34.40
2023-02-24T00:31:15.967Z,35.58
2023-02-24T00:33:43.152Z,35.80
2023-02-24T00:36:12.946Z,39.15
2023-02-24T00:38:44.963Z,43.13
2023-02-24T00:41:14.493Z,39.88
2023-02-24T00:43:48.411Z,36.88
2023-02-24T00:46:17.680Z,36.50
2023-02-24T00:48:47.603Z,35.70
2023-02-24T00:51:16.892Z,39.67
2023-02-24T00:53:44.371Z,35.95
2023-02-24T00:56:16.233Z,37.35
2023-02-24T00:58:43.428Z,40.83
2023-02-24T01:01:14.716Z,38.80
2023-02-24T01:03:42.211Z,42.00
2023-02-24T01:06:09.521Z,38.35
2023-02-24T01:08:42.954Z,40.90
2023-02-24T01:11:28.378Z,39.47
2023-02-24T01:13:54.740Z,43.03
2023-02-24T01:16:21.390Z,43.78
2023-02-24T01:18:48.424Z,38.15
2023-02-24T01:21:15.814Z,43.42
2023-02-24T01:23:42.605Z,43.17
2023-02-24T01:26:12.241Z,41.25
2023-02-24T01:28:39.910Z,42.97
2023-02-24T01:31:06.736Z,39.70
2023-02-24T01:33:35.112Z,41.10
2023-02-24T01:36:13.153Z,40.08
2023-02-24T01:38:42.790Z,44.78
2023-02-24T01:41:11.215Z,45.80
2023-02-24T01:43:58.632Z,40.60
2023-02-24T01:46:27.053Z,41.97
2023-02-24T01:48:56.654Z,41.45
2023-02-24T01:51:24.113Z,46.10
2023-02-24T01:53:51.079Z,44.25
2023-02-24T01:56:17.443Z,44.88
2023-02-24T01:58:44.860Z,42.10
2023-02-24T02:01:12.105Z,38.50
2023-02-24T02:03:40.488Z,42.33
2023-02-24T02:06:12.170Z,44.38
2023-02-24T02:08:39.840Z,41.40
2023-02-24T02:11:08.252Z,42.25
2023-02-24T02:13:35.811Z,45.03
2023-02-24T02:16:25.669Z,40.38
2023-02-24T02:19:04.328Z,41.58
2023-02-24T02:21:44.979Z,43.83
2023-02-24T02:24:27.823Z,43.35
2023-02-24T02:27:15.531Z,43.25
2023-02-24T02:29:56.502Z,44.15
2023-02-24T02:32:27.186Z,43.03
2023-02-24T02:35:03.398Z,42.55
2023-02-24T02:37:29.722Z,41.88
2023-02-24T02:40:02.272Z,43.58
2023-02-24T02:42:30.700Z,45.78
2023-02-24T02:44:57.153Z,41.55
2023-02-24T02:47:35.296Z,43.72
2023-02-24T02:50:08.169Z,45.05
2023-02-24T02:52:42.732Z,41.38
2023-02-24T02:55:14.756Z,42.70
2023-02-24T02:57:47.445Z,43.45
2023-02-24T03:00:23.549Z,43.95
2023-02-24T03:02:52.103Z,43.65
2023-02-24T03:05:21.379Z,47.63
2023-02-24T03:07:51.345Z,50.47
2023-02-24T03:10:25.069Z,47.95
2023-02-24T03:12:53.442Z,51.15
2023-02-24T03:15:21.123Z,48.55
2023-02-24T03:17:49.663Z,48.35
2023-02-24T03:20:22.581Z,46.00
2023-02-24T03:22:55.840Z,47.90
2023-02-24T03:25:25.231Z,48.78
2023-02-24T03:28:07.015Z,45.42
2023-02-24T03:30:44.291Z,42.35
2023-02-24T03:33:33.273Z,41.53
2023-02-24T03:36:02.080Z,47.20
2023-02-24T03:38:31.148Z,43.58
2023-02-24T03:40:58.964Z,46.10
2023-02-24T03:43:31.454Z,43.67
2023-02-24T03:45:59.146Z,44.13
2023-02-24T03:48:27.307Z,41.92
2023-02-24T03:50:55.973Z,45.85
2023-02-24T03:53:55.365Z,45.22
2023-02-24T03:56:29.194Z,48.70
2023-02-24T03:59:06.068Z,46.35
2023-02-24T04:01:52.010Z,50.00
2023-02-24T04:04:30.113Z,47.92
2023-02-24T04:07:10.794Z,46.45
2023-02-24T04:09:37.162Z,46.25
2023-02-24T04:12:14.687Z,44.72
2023-02-24T04:14:48.438Z,46.97
2023-02-24T04:17:30.068Z,45.83
2023-02-24T04:19:59.456Z,45.72
2023-02-24T04:22:27.169Z,45.13
2023-02-24T04:24:57.077Z,43.50
2023-02-24T04:27:24.291Z,46.53
2023-02-24T04:29:57.070Z,43.88
2023-02-24T04:32:26.059Z,46.03
2023-02-24T04:34:53.084Z,49.10
2023-02-24T04:37:23.316Z,47.03
2023-02-24T04:39:50.982Z,45.70
2023-02-24T04:42:25.624Z,46.13
2023-02-24T04:44:53.896Z,48.65
2023-02-24T04:47:20.840Z,43.13
2023-02-24T04:49:47.442Z,45.75
2023-02-24T04:52:15.481Z,47.13
2023-02-24T04:54:42.038Z,48.42
2023-02-24T04:57:10.509Z,44.35
2023-02-24T04:59:38.052Z,44.85
2023-02-24T05:02:04.622Z,46.13
2023-02-24T05:04:36.129Z,44.78
2023-02-24T05:07:03.055Z,43.58
2023-02-24T05:09:30.248Z,45.33
2023-02-24T05:11:57.322Z,47.08
2023-02-24T05:14:24.978Z,46.88
2023-02-24T05:16:51.680Z,50.03
2023-02-24T05:19:38.304Z,46.40
2023-02-24T05:22:07.280Z,44.20
2023-02-24T05:24:34.578Z,47.72
2023-02-24T05:27:03.382Z,47.60
2023-02-24T05:29:30.822Z,46.83
2023-02-24T05:32:00.839Z,47.10
2023-02-24T05:34:28.302Z,49.72
2023-02-24T05:36:54.813Z,47.90
2023-02-24T05:39:21.761Z,47.40
2023-02-24T05:41:49.174Z,48.03
2023-02-24T05:44:17.160Z,47.55
2023-02-24T05:46:45.212Z,45.80
2023-02-24T05:49:16.224Z,46.47
2023-02-24T05:51:55.183Z,48.40
2023-02-24T05:54:23.521Z,48.53
2023-02-24T05:56:52.452Z,47.47
2023-02-24T05:59:21.369Z,49.97
2023-02-24T06:01:48.715Z,52.58
2023-02-24T06:04:21.018Z,48.38
2023-02-24T06:06:52.682Z,49.60
2023-02-24T06:09:23.040Z,51.15
2023-02-24T06:11:49.860Z,51.40
2023-02-24T06:14:16.673Z,51.25
2023-02-24T06:16:46.047Z,50.47
2023-02-24T06:19:13.047Z,53.10
2023-02-24T06:21:43.796Z,56.10
2023-02-24T06:24:14.381Z,50.30
2023-02-24T06:26:43.475Z,48.35
2023-02-24T06:29:14.328Z,53.05
2023-02-24T06:31:41.919Z,55.47
2023-02-24T06:34:10.514Z,56.85
2023-02-24T06:36:37.964Z,50.67
2023-02-24T06:39:08.030Z,48.85
2023-02-24T06:41:35.395Z,53.97
2023-02-24T06:44:01.864Z,59.10
2023-02-24T06:46:28.870Z,50.15
2023-02-24T06:48:56.652Z,51.58
2023-02-24T06:51:24.241Z,51.72
2023-02-24T06:53:52.742Z,49.78
2023-02-24T06:56:19.981Z,48.40
2023-02-24T06:58:51.304Z,47.10
2023-02-24T07:01:19.871Z,52.13
2023-02-24T07:04:02.064Z,55.78
2023-02-24T07:06:34.479Z,49.78
2023-02-24T07:09:05.748Z,53.05
2023-02-24T07:11:33.978Z,49.47
2023-02-24T07:14:00.989Z,55.53
2023-02-24T07:16:28.963Z,50.40
2023-02-24T07:18:57.683Z,49.85
2023-02-24T07:21:25.412Z,51.97
2023-02-24T07:23:58.858Z,50.42
2023-02-24T07:26:27.953Z,47.78
2023-02-24T07:28:58.172Z,45.08
2023-02-24T07:31:26.042Z,53.42
2023-02-24T07:33:57.266Z,49.08
2023-02-24T07:36:29.891Z,48.92
2023-02-24T07:38:58.490Z,47.17
2023-02-24T07:41:26.585Z,46.20
2023-02-24T07:43:54.301Z,48.00
2023-02-24T07:46:25.436Z,49.47
2023-02-24T07:48:53.004Z,45.90
2023-02-24T07:51:20.923Z,43.72
2023-02-24T07:53:52.965Z,44.65
2023-02-24T07:56:26.798Z,45.15
2023-02-24T07:58:59.648Z,48.10
2023-02-24T08:01:28.356Z,45.03
2023-02-24T08:03:56.311Z,46.15
2023-02-24T08:06:38.044Z,45.45
2023-02-24T08:09:16.973Z,45.15
2023-02-24T08:11:46.634Z,44.03
2023-02-24T08:14:14.145Z,40.35
2023-02-24T08:16:41.713Z,43.20
2023-02-24T08:19:13.117Z,39.22
2023-02-24T08:21:41.409Z,42.33
2023-02-24T08:24:20.160Z,36.78
2023-02-24T08:26:53.984Z,38.00
2023-02-24T08:29:20.743Z,36.20
2023-02-24T08:31:47.546Z,40.58
2023-02-24T08:34:16.097Z,36.55
2023-02-24T08:36:48.421Z,35.83
2023-02-24T08:39:15.137Z,36.28
2023-02-24T08:41:51.552Z,32.15
2023-02-24T08:44:21.602Z,28.88
2023-02-24T08:46:52.585Z,31.67
2023-02-24T08:49:19.459Z,31.63
2023-02-24T08:51:47.291Z,30.30
2023-02-24T08:54:15.720Z,28.85
2023-02-24T08:56:49.186Z,29.15
2023-02-24T08:59:38.910Z,31.40
2023-02-24T09:02:17.730Z,29.02
2023-02-24T09:05:05.247Z,34.25
2023-02-24T09:07:35.834Z,26.65
2023-02-24T09:10:03.881Z,24.90
2023-02-24T09:12:30.698Z,27.70
2023-02-24T09:15:04.427Z,28.75
2023-02-24T09:17:40.938Z,28.05
2023-02-24T09:20:26.514Z,29.33
2023-02-24T09:23:09.902Z,28.45
2023-02-24T09:25:41.470Z,27.27
2023-02-24T09:28:09.569Z,28.05
2023-02-24T09:30:37.568Z,29.30
2023-02-24T09:33:18.140Z,27.55
2023-02-24T09:35:50.849Z,30.90
2023-02-24T09:40:48.937Z,27.30
2023-02-24T09:43:28.105Z,29.33
2023-02-24T09:46:01.824Z,30.73
2023-02-24T09:48:33.259Z,24.60
2023-02-24T09:51:05.523Z,32.63
2023-02-24T09:53:41.240Z,28.48
2023-02-24T09:56:22.128Z,27.85
2023-02-24T09:58:53.234Z,25.40
2023-02-24T10:01:42.739Z,27.70
2023-02-24T10:04:20.551Z,28.95
2023-02-24T10:06:58.928Z,25.40
2023-02-24T10:09:39.270Z,25.15
2023-02-24T10:12:17.526Z,23.10
2023-02-24T10:15:32.335Z,22.88
2023-02-24T10:18:03.929Z,23.80
2023-02-24T10:20:45.589Z,25.35
2023-02-24T10:23:29.761Z,21.80
2023-02-24T10:26:57.914Z,18.55
2023-02-24T10:29:44.765Z,17.50
2023-02-24T10:32:24.251Z,16.10
2023-02-24T10:34:51.583Z,16.73
2023-02-24T10:37:28.629Z,16.90
2023-02-24T10:39:57.091Z,15.68
2023-02-24T10:42:48.143Z,16.45
2023-02-24T10:45:25.047Z,15.23
2023-02-24T10:47:57.286Z,15.13
2023-02-24T10:50:25.954Z,18.20
2023-02-24T10:53:07.042Z,20.63
2023-02-24T10:55:39.399Z,20.63
2023-02-24T10:58:06.693Z,17.65
2023-02-24T11:01:12.698Z,18.13
2023-02-24T11:04:01.491Z,18.30
2023-02-24T11:06:42.184Z,18.38
2023-02-24T11:09:32.408Z,16.70
2023-02-24T11:12:23.462Z,18.33
2023-02-24T11:15:13.761Z,17.17
2023-02-24T11:17:52.605Z,18.30
2023-02-24T11:20:25.171Z,15.93
2023-02-24T11:22:52.601Z,20.25
2023-02-24T11:25:27.300Z,17.48
2023-02-24T11:27:57.120Z,17.90
2023-02-24T11:30:35.022Z,19.05
2023-02-24T11:33:07.529Z,20.50
2023-02-24T11:35:33.830Z,19.77
2023-02-24T11:38:05.868Z,18.48
2023-02-24T11:40:36.960Z,19.63
2023-02-24T11:43:18.321Z,19.52
2023-02-24T11:45:50.701Z,18.42
2023-02-24T11:48:19.608Z,19.13
2023-02-24T11:50:49.430Z,20.50
2023-02-24T11:53:32.571Z,16.42
2023-02-24T11:56:03.745Z,18.70
2023-02-24T11:58:34.538Z,16.98
2023-02-24T12:01:15.813Z,19.45
2023-02-24T12:03:58.333Z,15.52
2023-02-24T12:06:34.175Z,16.48
2023-02-24T12:09:09.278Z,17.50
2023-02-24T12:11:48.927Z,18.63
2023-02-24T12:14:16.936Z,18.88
2023-02-24T12:16:45.983Z,20.23
2023-02-24T12:19:19.951Z,17.85
2023-02-24T12:21:52.744Z,19.15
2023-02-24T12:24:21.188Z,17.95
2023-02-24T12:27:01.522Z,18.45
2023-02-24T12:29:50.058Z,18.15
2023-02-24T12:32:22.830Z,18.08
2023-02-24T12:35:08.727Z,17.58
2023-02-24T12:37:51.019Z,17.02
2023-02-24T12:40:31.259Z,14.88
2023-02-24T12:43:05.248Z,18.05
2023-02-24T12:48:07.004Z,15.45
2023-02-24T12:50:40.977Z,16.95
2023-02-24T12:53:09.014Z,18.20
2023-02-24T12:55:50.766Z,18.08
2023-02-24T12:58:20.628Z,16.63
2023-02-24T13:00:52.990Z,18.70
2023-02-24T13:03:26.983Z,18.85
2023-02-24T13:06:13.427Z,18.48
2023-02-24T13:08:39.772Z,18.08
2023-02-24T13:11:25.583Z,18.98
2023-02-24T13:13:59.600Z,18.88
2023-02-24T13:19:03.817Z,17.77
2023-02-24T13:21:32.585Z,17.13
2023-02-24T13:24:02.998Z,18.25
2023-02-24T13:26:31.103Z,16.63
2023-02-24T13:29:03.353Z,18.25
2023-02-24T13:31:59.163Z,16.98
2023-02-24T13:34:44.637Z,16.95
2023-02-24T13:37:12.402Z,17.02
2023-02-24T13:39:41.676Z,20.58
2023-02-24T13:42:20.265Z,18.80
2023-02-24T13:44:53.092Z,16.77
2023-02-24T13:47:19.749Z,18.07
2023-02-24T13:49:51.978Z,17.35
2023-02-24T13:52:32.578Z,17.42
2023-02-24T13:54:59.248Z,15.85
2023-02-24T13:57:27.720Z,17.40
2023-02-24T13:59:57.772Z,17.70
2023-02-24T14:02:28.120Z,17.90
2023-02-24T14:04:55.788Z,14.65
2023-02-24T14:07:24.298Z,17.67
2023-02-24T14:09:58.055Z,16.27
2023-02-24T14:12:26.806Z,15.07
2023-02-24T14:14:54.444Z,18.85
2023-02-24T14:17:31.526Z,14.30
2023-02-24T14:20:21.312Z,14.38
2023-02-24T14:22:50.069Z,16.73
2023-02-24T14:25:17.949Z,13.82
2023-02-24T14:27:45.450Z,15.80
2023-02-24T14:30:21.912Z,15.43
2023-02-24T14:32:48.429Z,14.27
2023-02-24T14:35:19.348Z,12.40
2023-02-24T14:37:45.928Z,14.20
2023-02-24T14:40:14.769Z,14.57
2023-02-24T14:42:49.260Z,14.05
2023-02-24T14:45:17.955Z,16.05
2023-02-24T14:47:46.291Z,13.25
2023-02-24T14:50:17.741Z,13.23
2023-02-24T14:52:55.748Z,13.15
2023-02-24T14:55:23.694Z,16.95
2023-02-24T14:58:06.716Z,14.20
2023-02-24T15:00:35.970Z,15.52
2023-02-24T15:03:05.954Z,14.60
2023-02-24T15:05:32.554Z,12.25
2023-02-24T15:08:01.880Z,14.73
2023-02-24T15:10:29.843Z,14.20
2023-02-24T15:13:06.420Z,18.00
2023-02-24T15:15:35.670Z,13.93
2023-02-24T15:18:04.660Z,16.30
2023-02-24T15:20:36.102Z,11.80
2023-02-24T15:23:03.749Z,14.55
2023-02-24T15:25:42.513Z,10.90
2023-02-24T15:28:21.725Z,11.52
2023-02-24T15:31:11.224Z,13.68
2023-02-24T15:33:46.042Z,14.35
2023-02-24T15:36:17.783Z,12.80
2023-02-24T15:38:44.941Z,12.63
2023-02-24T15:41:12.717Z,13.02
2023-02-24T15:43:48.403Z,12.85
2023-02-24T15:46:16.009Z,12.52
2023-02-24T15:48:43.530Z,11.85
2023-02-24T15:51:18.189Z,13.38
2023-02-24T15:53:44.559Z,14.15
2023-02-24T15:56:12.781Z,14.90
2023-02-24T15:58:41.091Z,10.23
2023-02-24T16:01:09.165Z,10.40
2023-02-24T16:03:35.855Z,10.57
2023-02-24T16:06:02.453Z,12.60
2023-02-24T16:08:29.193Z,11.15
2023-02-24T16:10:55.906Z,15.77
2023-02-24T16:13:23.968Z,14.75
2023-02-24T16:15:50.789Z,12.40
2023-02-24T16:18:21.918Z,13.23
2023-02-24T16:20:54.143Z,14.73
2023-02-24T16:23:22.241Z,15.35
2023-02-24T16:25:49.706Z,11.70
2023-02-24T16:28:17.351Z,14.77
2023-02-24T16:30:44.484Z,15.45
2023-02-24T16:33:14.931Z,13.48
2023-02-24T16:35:43.220Z,10.38
2023-02-24T16:38:15.054Z,13.10
2023-02-24T16:40:46.485Z,13.75
2023-02-24T16:43:13.647Z,12.23
2023-02-24T16:45:41.421Z,12.10
2023-02-24T16:48:21.652Z,12.00
2023-02-24T16:50:48.559Z,13.23
2023-02-24T16:53:16.591Z,15.07
2023-02-24T16:55:43.524Z,17.70
2023-02-24T16:58:10.417Z,10.52
2023-02-24T17:00:38.219Z,14.85
2023-02-24T17:03:06.797Z,13.05
2023-02-24T17:05:33.345Z,12.25
2023-02-24T17:07:59.679Z,15.90
2023-02-24T17:10:26.191Z,13.48
2023-02-24T17:12:53.025Z,14.90
2023-02-24T17:15:21.361Z,17.30
2023-02-24T17:17:48.003Z,14.07
2023-02-24T17:20:16.713Z,15.85
2023-02-24T17:22:43.943Z,17.48
2023-02-24T17:25:14.567Z,16.50
2023-02-24T17:27:41.102Z,13.32
2023-02-24T17:30:07.731Z,13.68
2023-02-24T17:32:34.415Z,16.98
2023-02-24T17:35:01.015Z,13.63
2023-02-24T17:37:27.373Z,10.43
2023-02-24T17:39:53.892Z,11.75
2023-02-24T17:42:20.651Z,9.35
2023-02-24T17:44:47.514Z,11.05
2023-02-24T17:47:14.090Z,11.65
2023-02-24T17:49:40.731Z,11.30
2023-02-24T17:52:07.246Z,9.40
2023-02-24T17:54:33.967Z,8.70
2023-02-24T17:57:00.410Z,10.43
2023-02-24T17:59:27.060Z,7.80
2023-02-24T18:01:54.179Z,9.75
2023-02-24T18:04:20.629Z,8.20
2023-02-24T18:06:49.888Z,8.27
2023-02-24T18:09:16.934Z,9.73
2023-02-24T18:11:45.708Z,10.40
2023-02-24T18:14:12.698Z,11.43
2023-02-24T18:16:39.422Z,7.75
2023-02-24T18:19:06.075Z,8.15
2023-02-24T18:21:32.797Z,8.88
2023-02-24T18:23:59.359Z,9.77
2023-02-24T18:26:26.387Z,9.50
2023-02-24T18:28:53.720Z,8.80
2023-02-24T18:31:22.459Z,10.40
2023-02-24T18:33:49.563Z,8.30
2023-02-24T18:36:16.794Z,10.55
2023-02-24T18:38:43.726Z,7.18
2023-02-24T18:41:15.592Z,8.95
2023-02-24T18:43:42.864Z,7.97
2023-02-24T18:46:12.489Z,11.90
2023-02-24T18:48:40.343Z,7.72
2023-02-24T18:51:08.036Z,8.43
2023-02-24T18:53:37.071Z,10.30
2023-02-24T18:56:04.573Z,11.38
2023-02-24T18:58:31.404Z,8.68
2023-02-24T19:00:57.812Z,10.20
2023-02-24T19:03:24.301Z,11.60
2023-02-24T19:05:51.104Z,10.35
2023-02-24T19:08:18.164Z,14.43
2023-02-24T19:10:44.633Z,13.38
2023-02-24T19:13:11.349Z,11.65
2023-02-24T19:15:38.726Z,15.60
2023-02-24T19:18:06.167Z,15.13
2023-02-24T19:20:32.850Z,15.00
2023-02-24T19:22:59.561Z,17.08
2023-02-24T19:25:26.013Z,16.02
2023-02-24T19:27:55.645Z,19.23
2023-02-24T19:30:22.167Z,13.20
2023-02-24T19:32:49.777Z,16.33
2023-02-24T19:35:16.706Z,14.90
2023-02-24T19:37:43.547Z,14.68
2023-02-24T19:40:10.756Z,12.45
2023-02-24T19:42:37.256Z,13.20
2023-02-24T19:45:04.354Z,19.88
2023-02-24T19:47:30.746Z,13.35
2023-02-24T19:49:57.751Z,16.05
2023-02-24T19:52:24.109Z,17.15
2023-02-24T19:54:50.674Z,14.18
2023-02-24T19:57:18.132Z,17.60
2023-02-24T19:59:44.988Z,16.45
2023-02-24T20:02:11.537Z,13.15
2023-02-24T20:04:38.182Z,15.30
2023-02-24T20:07:04.931Z,15.77
2023-02-24T20:09:32.681Z,13.77
2023-02-24T20:12:01.741Z,12.82
2023-02-24T20:14:29.319Z,14.32
2023-02-24T20:16:56.074Z,17.58
2023-02-24T20:19:24.061Z,14.55
2023-02-24T20:21:50.958Z,13.18
2023-02-24T20:24:18.181Z,14.75
2023-02-24T20:26:47.077Z,15.95
2023-02-24T20:29:14.067Z,17.92
2023-02-24T20:31:40.959Z,16.08
2023-02-24T20:34:09.176Z,12.35
2023-02-24T20:36:35.796Z,14.48
2023-02-24T20:39:03.067Z,12.40
2023-02-24T20:41:29.552Z,12.95
2023-02-24T20:43:55.941Z,15.82
2023-02-24T20:46:24.928Z,16.92
2023-02-24T20:48:52.872Z,14.10
2023-02-24T20:51:19.629Z,14.55
2023-02-24T20:53:56.554Z,12.95
2023-02-24T20:56:24.991Z,14.43
2023-02-24T20:58:52.679Z,15.13
2023-02-24T21:01:20.388Z,14.55
2023-02-24T21:03:47.405Z,14.98
2023-02-24T21:06:14.909Z,15.15
2023-02-24T21:08:41.545Z,17.30
2023-02-24T21:11:10.938Z,13.45
2023-02-24T21:13:45.458Z,15.27
2023-02-24T21:16:12.624Z,13.95
2023-02-24T21:18:40.851Z,16.80
2023-02-24T21:21:08.089Z,15.32
2023-02-24T21:23:35.188Z,13.50
2023-02-24T21:26:01.939Z,16.23
2023-02-24T21:28:28.432Z,13.80
2023-02-24T21:30:54.874Z,13.68
2023-02-24T21:33:25.759Z,17.35
2023-02-24T21:36:06.516Z,16.23
2023-02-24T21:38:34.334Z,13.32
2023-02-24T21:41:01.399Z,14.40
2023-02-24T21:43:28.013Z,14.32
2023-02-24T21:45:54.378Z,12.63
2023-02-24T21:48:21.662Z,12.27
2023-02-24T21:51:03.667Z,14.80
2023-02-24T21:53:33.632Z,14.32
2023-02-24T21:56:19.079Z,16.73
2023-02-24T21:58:46.787Z,6.90
2023-02-24T22:01:18.269Z,8.68
2023-02-24T22:03:45.090Z,7.13
2023-02-24T22:06:12.670Z,6.65
2023-02-24T22:08:43.525Z,6.63
2023-02-24T22:11:10.714Z,7.63
2023-02-24T22:13:37.963Z,7.78
2023-02-24T22:16:05.334Z,5.65
2023-02-24T22:18:31.917Z,8.13
2023-02-24T22:20:58.556Z,8.07
2023-02-24T22:23:25.227Z,8.93
2023-02-24T22:25:51.782Z,8.07
2023-02-24T22:28:18.140Z,7.15
2023-02-24T22:30:44.706Z,9.60
2023-02-24T22:33:11.575Z,8.23
2023-02-24T22:35:38.250Z,8.35
2023-02-24T22:38:04.792Z,7.40
2023-02-24T22:40:32.640Z,8.57
2023-02-24T22:42:59.008Z,10.70
2023-02-24T22:45:25.715Z,9.40
2023-02-24T22:47:52.461Z,9.77
2023-02-24T22:50:19.032Z,6.25
2023-02-24T22:52:45.468Z,7.57
2023-02-24T22:55:11.938Z,9.80
2023-02-24T22:57:38.599Z,8.70
2023-02-24T23:00:09.765Z,10.40
2023-02-24T23:02:36.867Z,8.90
2023-02-24T23:05:03.427Z,8.75
2023-02-24T23:07:31.336Z,9.82
2023-02-24T23:09:59.230Z,10.80
2023-02-24T23:12:25.758Z,8.95
2023-02-24T23:14:52.285Z,9.75
2023-02-24T23:17:19.055Z,10.00
2023-02-24T23:19:45.744Z,12.88
2023-02-24T23:22:12.342Z,11.48
2023-02-24T23:24:39.005Z,11.00
2023-02-24T23:27:06.330Z,11.88
2023-02-24T23:29:32.866Z,10.38
2023-02-24T23:31:59.654Z,8.38
2023-02-24T23:34:26.171Z,12.65
2023-02-24T23:36:52.790Z,10.10
2023-02-24T23:39:21.518Z,9.10
2023-02-24T23:41:47.946Z,13.68
2023-02-24T23:44:14.505Z,16.73
2023-02-24T23:46:41.777Z,11.15
2023-02-24T23:49:08.301Z,11.68
2023-02-24T23:51:47.510Z,13.00
2023-02-24T23:54:15.112Z,12.70
2023-02-24T23:56:41.842Z,8.80
2023-02-24T23:59:08.597Z,8.77
